sensor_id;sensor_type;location;lat;lon;timestamp;pressure;altitude;pressure_sealevel;temperature;humidity
77526;BME280;66627;29.424;-98.496;2023-06-10T00:00:15;98205.73;;;39.10;28.00
77526;BME280;66627;29.424;-98.496;2023-06-10T00:02:39;98205.78;;;38.63;27.02
77526;BME280;66627;29.424;-98.496;2023-06-10T00:05:04;98197.49;;;38.43;26.55
77526;BME280;66627;29.424;-98.496;2023-06-10T00:07:29;98202.33;;;38.53;27.09
77526;BME280;66627;29.424;-98.496;2023-06-10T00:09:54;98203.12;;;37.99;27.32
77526;BME280;66627;29.424;-98.496;2023-06-10T00:12:19;98209.65;;;37.96;27.78
77526;BME280;66627;29.424;-98.496;2023-06-10T00:14:45;98211.26;;;37.75;27.18
77526;BME280;66627;29.424;-98.496;2023-06-10T00:17:11;98205.58;;;37.24;27.49
77526;BME280;66627;29.424;-98.496;2023-06-10T00:19:36;98204.84;;;37.30;27.29
77526;BME280;66627;29.424;-98.496;2023-06-10T00:22:01;98201.21;;;36.55;28.58
77526;BME280;66627;29.424;-98.496;2023-06-10T00:24:27;98194.78;;;36.88;27.99
77526;BME280;66627;29.424;-98.496;2023-06-10T00:26:52;98191.38;;;36.73;28.60
77526;BME280;66627;29.424;-98.496;2023-06-10T00:29:17;98188.64;;;36.45;28.28
77526;BME280;66627;29.424;-98.496;2023-06-10T00:31:45;98195.26;;;35.58;30.35
77526;BME280;66627;29.424;-98.496;2023-06-10T00:34:09;98191.09;;;35.38;29.89
77526;BME280;66627;29.424;-98.496;2023-06-10T00:36:33;98187.41;;;35.99;29.60
77526;BME280;66627;29.424;-98.496;2023-06-10T00:38:59;98185.36;;;36.31;29.74
77526;BME280;66627;29.424;-98.496;2023-06-10T00:41:24;98187.73;;;35.75;30.02
77526;BME280;66627;29.424;-98.496;2023-06-10T00:43:49;98188.67;;;35.25;30.05
77526;BME280;66627;29.424;-98.496;2023-06-10T00:46:14;98192.40;;;35.15;30.35
77526;BME280;66627;29.424;-98.496;2023-06-10T00:48:39;98195.11;;;34.80;30.30
77526;BME280;66627;29.424;-98.496;2023-06-10T00:51:06;98197.81;;;35.33;30.24
77526;BME280;66627;29.424;-98.496;2023-06-10T00:53:31;98194.92;;;34.85;30.38
77526;BME280;66627;29.424;-98.496;2023-06-10T00:55:57;98198.62;;;34.36;31.84
77526;BME280;66627;29.424;-98.496;2023-06-10T00:58:22;98197.88;;;34.64;31.02
77526;BME280;66627;29.424;-98.496;2023-06-10T01:00:52;98196.24;;;34.77;30.92
77526;BME280;66627;29.424;-98.496;2023-06-10T01:03:12;98198.34;;;34.34;32.19
77526;BME280;66627;29.424;-98.496;2023-06-10T01:05:38;98204.85;;;34.74;31.95
77526;BME280;66627;29.424;-98.496;2023-06-10T01:08:09;98206.85;;;34.42;31.59
77526;BME280;66627;29.424;-98.496;2023-06-10T01:10:36;98206.90;;;34.41;31.58
77526;BME280;66627;29.424;-98.496;2023-06-10T01:13:00;98202.70;;;35.20;31.11
77526;BME280;66627;29.424;-98.496;2023-06-10T01:15:20;98202.53;;;34.51;31.48
77526;BME280;66627;29.424;-98.496;2023-06-10T01:17:54;98202.42;;;34.13;32.14
77526;BME280;66627;29.424;-98.496;2023-06-10T01:20:11;98202.60;;;34.45;32.04
77526;BME280;66627;29.424;-98.496;2023-06-10T01:22:36;98206.52;;;33.73;32.52
77526;BME280;66627;29.424;-98.496;2023-06-10T01:25:01;98207.58;;;34.33;31.98
77526;BME280;66627;29.424;-98.496;2023-06-10T01:27:30;98209.89;;;34.07;32.61
77526;BME280;66627;29.424;-98.496;2023-06-10T01:29:58;98213.22;;;34.50;32.10
77526;BME280;66627;29.424;-98.496;2023-06-10T01:32:23;98216.88;;;34.56;32.09
77526;BME280;66627;29.424;-98.496;2023-06-10T01:34:43;98219.99;;;34.31;32.61
77526;BME280;66627;29.424;-98.496;2023-06-10T01:37:09;98220.11;;;34.12;32.36
77526;BME280;66627;29.424;-98.496;2023-06-10T01:39:34;98228.21;;;33.29;34.22
77526;BME280;66627;29.424;-98.496;2023-06-10T01:42:00;98227.35;;;33.39;33.55
77526;BME280;66627;29.424;-98.496;2023-06-10T01:44:24;98232.76;;;32.98;34.91
77526;BME280;66627;29.424;-98.496;2023-06-10T01:46:49;98231.03;;;33.55;34.54
77526;BME280;66627;29.424;-98.496;2023-06-10T01:49:15;98231.50;;;33.47;34.87
77526;BME280;66627;29.424;-98.496;2023-06-10T01:51:40;98235.15;;;33.63;34.41
77526;BME280;66627;29.424;-98.496;2023-06-10T01:54:06;98238.04;;;33.72;34.53
77526;BME280;66627;29.424;-98.496;2023-06-10T01:56:31;98241.47;;;33.45;34.69
77526;BME280;66627;29.424;-98.496;2023-06-10T01:58:56;98239.50;;;33.64;34.51
77526;BME280;66627;29.424;-98.496;2023-06-10T02:01:21;98237.98;;;33.39;34.43
77526;BME280;66627;29.424;-98.496;2023-06-10T02:03:47;98240.25;;;32.99;35.34
77526;BME280;66627;29.424;-98.496;2023-06-10T02:06:13;98240.52;;;33.58;35.20
77526;BME280;66627;29.424;-98.496;2023-06-10T02:08:37;98242.04;;;32.61;36.15
77526;BME280;66627;29.424;-98.496;2023-06-10T02:11:03;98238.62;;;33.22;36.17
77526;BME280;66627;29.424;-98.496;2023-06-10T02:13:29;98231.01;;;33.14;35.29
77526;BME280;66627;29.424;-98.496;2023-06-10T02:15:54;98229.52;;;33.44;35.60
77526;BME280;66627;29.424;-98.496;2023-06-10T02:18:19;98233.02;;;33.02;35.77
77526;BME280;66627;29.424;-98.496;2023-06-10T02:20:45;98239.58;;;33.57;35.51
77526;BME280;66627;29.424;-98.496;2023-06-10T02:23:09;98237.03;;;33.43;35.65
77526;BME280;66627;29.424;-98.496;2023-06-10T02:25:35;98235.52;;;32.83;36.04
77526;BME280;66627;29.424;-98.496;2023-06-10T02:28:01;98232.88;;;32.08;37.52
77526;BME280;66627;29.424;-98.496;2023-06-10T02:30:26;98234.85;;;32.99;36.65
77526;BME280;66627;29.424;-98.496;2023-06-10T02:32:52;98243.23;;;32.96;36.51
77526;BME280;66627;29.424;-98.496;2023-06-10T02:35:18;98244.70;;;32.67;36.44
77526;BME280;66627;29.424;-98.496;2023-06-10T02:37:43;98248.26;;;32.81;36.36
77526;BME280;66627;29.424;-98.496;2023-06-10T02:40:11;98250.67;;;32.67;36.88
77526;BME280;66627;29.424;-98.496;2023-06-10T02:42:34;98259.90;;;32.96;36.45
77526;BME280;66627;29.424;-98.496;2023-06-10T02:45:00;98263.99;;;32.66;37.00
77526;BME280;66627;29.424;-98.496;2023-06-10T02:47:26;98265.24;;;32.48;37.59
77526;BME280;66627;29.424;-98.496;2023-06-10T02:49:51;98260.22;;;32.86;36.87
77526;BME280;66627;29.424;-98.496;2023-06-10T02:52:16;98260.83;;;32.16;37.90
77526;BME280;66627;29.424;-98.496;2023-06-10T02:54:41;98267.40;;;32.61;37.18
77526;BME280;66627;29.424;-98.496;2023-06-10T02:57:07;98278.67;;;32.75;36.90
77526;BME280;66627;29.424;-98.496;2023-06-10T02:59:32;98292.01;;;32.18;37.80
77526;BME280;66627;29.424;-98.496;2023-06-10T03:01:58;98296.83;;;32.23;38.08
77526;BME280;66627;29.424;-98.496;2023-06-10T03:04:24;98297.92;;;32.28;37.78
77526;BME280;66627;29.424;-98.496;2023-06-10T03:06:49;98295.91;;;31.72;38.37
77526;BME280;66627;29.424;-98.496;2023-06-10T03:09:14;98300.00;;;32.00;39.05
77526;BME280;66627;29.424;-98.496;2023-06-10T03:11:40;98304.99;;;31.49;39.88
77526;BME280;66627;29.424;-98.496;2023-06-10T03:14:04;98303.51;;;31.94;39.14
77526;BME280;66627;29.424;-98.496;2023-06-10T03:16:31;98298.56;;;31.10;40.34
77526;BME280;66627;29.424;-98.496;2023-06-10T03:18:56;98290.58;;;31.25;40.79
77526;BME280;66627;29.424;-98.496;2023-06-10T03:21:21;98296.74;;;31.69;40.79
77526;BME280;66627;29.424;-98.496;2023-06-10T03:23:46;98299.13;;;31.45;41.62
77526;BME280;66627;29.424;-98.496;2023-06-10T03:26:12;98300.45;;;31.01;42.87
77526;BME280;66627;29.424;-98.496;2023-06-10T03:28:37;98301.60;;;31.18;42.74
77526;BME280;66627;29.424;-98.496;2023-06-10T03:31:03;98309.85;;;31.38;43.08
77526;BME280;66627;29.424;-98.496;2023-06-10T03:33:29;98326.17;;;31.42;43.54
77526;BME280;66627;29.424;-98.496;2023-06-10T03:35:54;98332.10;;;31.02;43.53
77526;BME280;66627;29.424;-98.496;2023-06-10T03:38:19;98331.58;;;31.02;43.25
77526;BME280;66627;29.424;-98.496;2023-06-10T03:40:44;98333.08;;;31.16;42.87
77526;BME280;66627;29.424;-98.496;2023-06-10T03:43:19;98334.59;;;30.48;44.32
77526;BME280;66627;29.424;-98.496;2023-06-10T03:45:36;98341.85;;;30.59;44.81
77526;BME280;66627;29.424;-98.496;2023-06-10T03:48:02;98349.72;;;30.29;45.62
77526;BME280;66627;29.424;-98.496;2023-06-10T03:50:27;98351.77;;;30.08;45.58
77526;BME280;66627;29.424;-98.496;2023-06-10T03:52:52;98354.45;;;30.80;44.69
77526;BME280;66627;29.424;-98.496;2023-06-10T03:55:17;98356.04;;;29.89;45.41
77526;BME280;66627;29.424;-98.496;2023-06-10T03:57:43;98357.04;;;30.58;45.18
77526;BME280;66627;29.424;-98.496;2023-06-10T04:00:09;98359.74;;;30.33;46.04
77526;BME280;66627;29.424;-98.496;2023-06-10T04:02:33;98362.36;;;30.49;45.20
77526;BME280;66627;29.424;-98.496;2023-06-10T04:04:59;98365.43;;;30.44;45.16
77526;BME280;66627;29.424;-98.496;2023-06-10T04:07:24;98367.01;;;29.91;46.27
77526;BME280;66627;29.424;-98.496;2023-06-10T04:09:49;98372.68;;;30.25;45.40
77526;BME280;66627;29.424;-98.496;2023-06-10T04:12:14;98375.85;;;29.66;44.92
77526;BME280;66627;29.424;-98.496;2023-06-10T04:14:40;98375.25;;;29.63;44.46
77526;BME280;66627;29.424;-98.496;2023-06-10T04:17:06;98377.68;;;29.26;44.81
77526;BME280;66627;29.424;-98.496;2023-06-10T04:19:31;98379.08;;;29.26;43.93
77526;BME280;66627;29.424;-98.496;2023-06-10T04:21:56;98375.24;;;29.70;44.87
77526;BME280;66627;29.424;-98.496;2023-06-10T04:24:22;98374.22;;;29.79;43.52
77526;BME280;66627;29.424;-98.496;2023-06-10T04:26:46;98377.68;;;29.76;42.82
77526;BME280;66627;29.424;-98.496;2023-06-10T04:29:11;98384.77;;;29.55;43.84
77526;BME280;66627;29.424;-98.496;2023-06-10T04:31:37;98381.10;;;29.89;42.97
77526;BME280;66627;29.424;-98.496;2023-06-10T04:34:02;98381.73;;;29.34;43.32
77526;BME280;66627;29.424;-98.496;2023-06-10T04:36:27;98384.88;;;28.91;43.57
77526;BME280;66627;29.424;-98.496;2023-06-10T04:38:53;98380.75;;;29.53;43.45
77526;BME280;66627;29.424;-98.496;2023-06-10T04:41:17;98380.08;;;30.39;41.80
77526;BME280;66627;29.424;-98.496;2023-06-10T04:43:43;98389.20;;;29.54;43.30
77526;BME280;66627;29.424;-98.496;2023-06-10T04:46:09;98395.32;;;29.15;43.65
77526;BME280;66627;29.424;-98.496;2023-06-10T04:48:34;98401.31;;;29.82;43.57
77526;BME280;66627;29.424;-98.496;2023-06-10T04:51:00;98409.56;;;29.18;44.56
77526;BME280;66627;29.424;-98.496;2023-06-10T04:53:25;98407.51;;;29.02;44.70
77526;BME280;66627;29.424;-98.496;2023-06-10T04:55:50;98409.48;;;28.71;44.94
77526;BME280;66627;29.424;-98.496;2023-06-10T04:58:15;98417.03;;;28.93;45.37
77526;BME280;66627;29.424;-98.496;2023-06-10T05:00:41;98424.53;;;28.76;44.64
77526;BME280;66627;29.424;-98.496;2023-06-10T05:03:05;98425.80;;;29.37;44.52
77526;BME280;66627;29.424;-98.496;2023-06-10T05:05:30;98417.87;;;29.67;43.74
77526;BME280;66627;29.424;-98.496;2023-06-10T05:07:56;98421.40;;;29.44;44.37
77526;BME280;66627;29.424;-98.496;2023-06-10T05:10:22;98424.23;;;28.93;44.68
77526;BME280;66627;29.424;-98.496;2023-06-10T05:12:47;98417.12;;;28.66;45.11
77526;BME280;66627;29.424;-98.496;2023-06-10T05:15:12;98416.05;;;29.01;44.71
77526;BME280;66627;29.424;-98.496;2023-06-10T05:17:37;98415.64;;;29.72;43.57
77526;BME280;66627;29.424;-98.496;2023-06-10T05:20:03;98413.53;;;29.40;44.05
77526;BME280;66627;29.424;-98.496;2023-06-10T05:22:27;98415.49;;;29.28;44.35
77526;BME280;66627;29.424;-98.496;2023-06-10T05:24:53;98414.76;;;28.84;45.21
77526;BME280;66627;29.424;-98.496;2023-06-10T05:27:18;98416.34;;;29.17;44.60
77526;BME280;66627;29.424;-98.496;2023-06-10T05:29:43;98418.89;;;29.60;44.64
77526;BME280;66627;29.424;-98.496;2023-06-10T05:32:09;98425.34;;;28.77;44.94
77526;BME280;66627;29.424;-98.496;2023-06-10T05:34:34;98429.62;;;29.12;44.12
77526;BME280;66627;29.424;-98.496;2023-06-10T05:36:59;98436.52;;;28.76;45.44
77526;BME280;66627;29.424;-98.496;2023-06-10T05:39:25;98447.18;;;29.35;45.02
77526;BME280;66627;29.424;-98.496;2023-06-10T05:41:49;98446.53;;;29.40;43.96
77526;BME280;66627;29.424;-98.496;2023-06-10T05:44:16;98445.60;;;29.81;43.21
77526;BME280;66627;29.424;-98.496;2023-06-10T05:46:41;98444.15;;;29.37;44.09
77526;BME280;66627;29.424;-98.496;2023-06-10T05:49:05;98440.75;;;29.56;43.73
77526;BME280;66627;29.424;-98.496;2023-06-10T05:51:31;98434.76;;;30.31;42.51
77526;BME280;66627;29.424;-98.496;2023-06-10T05:53:56;98431.44;;;30.39;42.85
77526;BME280;66627;29.424;-98.496;2023-06-10T05:56:22;98423.41;;;30.21;43.15
77526;BME280;66627;29.424;-98.496;2023-06-10T05:58:47;98419.74;;;30.17;43.29
77526;BME280;66627;29.424;-98.496;2023-06-10T06:01:12;98418.84;;;29.28;44.77
77526;BME280;66627;29.424;-98.496;2023-06-10T06:03:38;98413.40;;;29.53;43.34
77526;BME280;66627;29.424;-98.496;2023-06-10T06:06:04;98404.87;;;28.59;45.39
77526;BME280;66627;29.424;-98.496;2023-06-10T06:08:29;98398.64;;;28.78;45.43
77526;BME280;66627;29.424;-98.496;2023-06-10T06:10:54;98393.78;;;29.23;44.90
77526;BME280;66627;29.424;-98.496;2023-06-10T06:13:19;98384.52;;;29.58;44.57
77526;BME280;66627;29.424;-98.496;2023-06-10T06:15:44;98373.51;;;29.53;44.60
77526;BME280;66627;29.424;-98.496;2023-06-10T06:18:09;98368.30;;;28.93;45.14
77526;BME280;66627;29.424;-98.496;2023-06-10T06:20:35;98369.30;;;28.76;45.74
77526;BME280;66627;29.424;-98.496;2023-06-10T06:23:00;98371.11;;;28.46;45.87
77526;BME280;66627;29.424;-98.496;2023-06-10T06:25:26;98382.14;;;27.99;46.71
77526;BME280;66627;29.424;-98.496;2023-06-10T06:27:50;98392.30;;;27.87;46.68
77526;BME280;66627;29.424;-98.496;2023-06-10T06:30:16;98400.92;;;29.32;44.75
77526;BME280;66627;29.424;-98.496;2023-06-10T06:32:41;98402.01;;;29.32;44.95
77526;BME280;66627;29.424;-98.496;2023-06-10T06:35:07;98400.75;;;29.06;45.64
77526;BME280;66627;29.424;-98.496;2023-06-10T06:37:31;98401.14;;;28.83;45.64
77526;BME280;66627;29.424;-98.496;2023-06-10T06:39:57;98402.59;;;27.87;47.29
77526;BME280;66627;29.424;-98.496;2023-06-10T06:42:22;98397.35;;;28.24;46.34
77526;BME280;66627;29.424;-98.496;2023-06-10T06:44:48;98398.69;;;28.80;46.36
77526;BME280;66627;29.424;-98.496;2023-06-10T06:47:13;98401.32;;;29.07;45.68
77526;BME280;66627;29.424;-98.496;2023-06-10T06:49:38;98397.92;;;29.32;45.31
77526;BME280;66627;29.424;-98.496;2023-06-10T06:52:03;98394.86;;;28.66;46.61
77526;BME280;66627;29.424;-98.496;2023-06-10T06:54:29;98392.72;;;28.69;46.68
77526;BME280;66627;29.424;-98.496;2023-06-10T06:56:53;98395.48;;;28.91;46.79
77526;BME280;66627;29.424;-98.496;2023-06-10T06:59:19;98396.26;;;28.34;47.08
77526;BME280;66627;29.424;-98.496;2023-06-10T07:01:44;98395.01;;;28.91;46.14
77526;BME280;66627;29.424;-98.496;2023-06-10T07:04:10;98388.56;;;28.81;46.85
77526;BME280;66627;29.424;-98.496;2023-06-10T07:06:35;98384.13;;;28.44;47.23
77526;BME280;66627;29.424;-98.496;2023-06-10T07:09:01;98381.63;;;28.42;47.89
77526;BME280;66627;29.424;-98.496;2023-06-10T07:11:26;98376.65;;;28.75;47.81
77526;BME280;66627;29.424;-98.496;2023-06-10T07:13:51;98367.37;;;29.09;46.92
77526;BME280;66627;29.424;-98.496;2023-06-10T07:16:16;98358.34;;;28.52;47.55
77526;BME280;66627;29.424;-98.496;2023-06-10T07:18:41;98357.33;;;28.71;47.73
77526;BME280;66627;29.424;-98.496;2023-06-10T07:21:06;98354.87;;;27.72;48.85
77526;BME280;66627;29.424;-98.496;2023-06-10T07:23:31;98350.55;;;28.86;47.40
77526;BME280;66627;29.424;-98.496;2023-06-10T07:25:56;98345.44;;;28.84;47.46
77526;BME280;66627;29.424;-98.496;2023-06-10T07:28:22;98339.19;;;28.42;47.75
77526;BME280;66627;29.424;-98.496;2023-06-10T07:30:47;98333.73;;;28.68;47.98
77526;BME280;66627;29.424;-98.496;2023-06-10T07:33:12;98326.71;;;28.33;47.75
77526;BME280;66627;29.424;-98.496;2023-06-10T07:35:38;98322.80;;;28.75;48.39
77526;BME280;66627;29.424;-98.496;2023-06-10T07:38:03;98314.13;;;28.61;48.11
77526;BME280;66627;29.424;-98.496;2023-06-10T07:40:28;98308.85;;;28.60;47.82
77526;BME280;66627;29.424;-98.496;2023-06-10T07:42:53;98307.51;;;28.36;48.54
77526;BME280;66627;29.424;-98.496;2023-06-10T07:45:18;98307.40;;;28.01;48.99
77526;BME280;66627;29.424;-98.496;2023-06-10T07:47:44;98312.23;;;27.47;50.60
77526;BME280;66627;29.424;-98.496;2023-06-10T07:50:10;98315.47;;;28.07;49.47
77526;BME280;66627;29.424;-98.496;2023-06-10T07:52:35;98321.33;;;28.17;48.63
77526;BME280;66627;29.424;-98.496;2023-06-10T07:55:00;98329.90;;;27.70;49.55
77526;BME280;66627;29.424;-98.496;2023-06-10T07:57:25;98330.52;;;28.40;48.16
77526;BME280;66627;29.424;-98.496;2023-06-10T07:59:50;98330.23;;;27.83;49.00
77526;BME280;66627;29.424;-98.496;2023-06-10T08:02:16;98338.90;;;27.81;50.03
77526;BME280;66627;29.424;-98.496;2023-06-10T08:04:41;98341.01;;;28.60;48.63
77526;BME280;66627;29.424;-98.496;2023-06-10T08:07:06;98343.86;;;28.69;48.08
77526;BME280;66627;29.424;-98.496;2023-06-10T08:09:32;98348.35;;;28.79;48.30
77526;BME280;66627;29.424;-98.496;2023-06-10T08:11:57;98355.81;;;28.93;47.69
77526;BME280;66627;29.424;-98.496;2023-06-10T08:14:22;98360.17;;;28.90;47.28
77526;BME280;66627;29.424;-98.496;2023-06-10T08:16:48;98362.58;;;28.84;47.52
77526;BME280;66627;29.424;-98.496;2023-06-10T08:19:13;98362.66;;;29.11;47.33
77526;BME280;66627;29.424;-98.496;2023-06-10T08:21:38;98361.73;;;29.02;47.12
77526;BME280;66627;29.424;-98.496;2023-06-10T08:24:04;98359.08;;;28.97;47.47
77526;BME280;66627;29.424;-98.496;2023-06-10T08:26:29;98355.23;;;28.98;47.77
77526;BME280;66627;29.424;-98.496;2023-06-10T08:28:54;98350.64;;;28.95;47.43
77526;BME280;66627;29.424;-98.496;2023-06-10T08:31:19;98350.53;;;28.77;46.52
77526;BME280;66627;29.424;-98.496;2023-06-10T08:33:44;98353.22;;;28.69;47.24
77526;BME280;66627;29.424;-98.496;2023-06-10T08:36:10;98349.14;;;29.02;47.38
77526;BME280;66627;29.424;-98.496;2023-06-10T08:38:35;98345.10;;;29.03;47.42
77526;BME280;66627;29.424;-98.496;2023-06-10T08:41:01;98343.56;;;29.20;47.18
77526;BME280;66627;29.424;-98.496;2023-06-10T08:43:30;98334.24;;;28.64;47.46
77526;BME280;66627;29.424;-98.496;2023-06-10T08:45:51;98330.81;;;28.83;47.09
77526;BME280;66627;29.424;-98.496;2023-06-10T08:48:17;98328.58;;;28.66;47.72
77526;BME280;66627;29.424;-98.496;2023-06-10T08:50:42;98329.74;;;28.72;47.50
77526;BME280;66627;29.424;-98.496;2023-06-10T08:53:14;98335.93;;;28.86;47.21
77526;BME280;66627;29.424;-98.496;2023-06-10T08:55:35;98347.37;;;28.22;47.78
77526;BME280;66627;29.424;-98.496;2023-06-10T08:57:58;98374.71;;;28.46;48.04
77526;BME280;66627;29.424;-98.496;2023-06-10T09:00:23;98402.38;;;27.32;49.96
77526;BME280;66627;29.424;-98.496;2023-06-10T09:02:49;98421.27;;;26.73;50.72
77526;BME280;66627;29.424;-98.496;2023-06-10T09:05:14;98434.86;;;26.79;51.06
77526;BME280;66627;29.424;-98.496;2023-06-10T09:07:38;98435.21;;;27.24;49.37
77526;BME280;66627;29.424;-98.496;2023-06-10T09:10:04;98426.89;;;27.40;48.94
77526;BME280;66627;29.424;-98.496;2023-06-10T09:12:29;98422.34;;;26.83;49.39
77526;BME280;66627;29.424;-98.496;2023-06-10T09:14:54;98420.70;;;27.03;48.86
77526;BME280;66627;29.424;-98.496;2023-06-10T09:17:19;98426.84;;;27.60;48.73
77526;BME280;66627;29.424;-98.496;2023-06-10T09:19:45;98428.09;;;28.01;47.95
77526;BME280;66627;29.424;-98.496;2023-06-10T09:22:10;98425.87;;;27.83;48.50
77526;BME280;66627;29.424;-98.496;2023-06-10T09:24:36;98415.90;;;28.25;47.95
77526;BME280;66627;29.424;-98.496;2023-06-10T09:27:05;98412.40;;;27.81;47.75
77526;BME280;66627;29.424;-98.496;2023-06-10T09:29:25;98415.81;;;27.88;47.98
77526;BME280;66627;29.424;-98.496;2023-06-10T09:31:51;98431.54;;;27.50;48.40
77526;BME280;66627;29.424;-98.496;2023-06-10T09:34:17;98423.02;;;27.99;47.94
77526;BME280;66627;29.424;-98.496;2023-06-10T09:36:42;98415.35;;;27.62;48.29
77526;BME280;66627;29.424;-98.496;2023-06-10T09:39:14;98409.59;;;27.95;47.11
77526;BME280;66627;29.424;-98.496;2023-06-10T09:41:33;98404.90;;;28.40;47.14
77526;BME280;66627;29.424;-98.496;2023-06-10T09:43:58;98403.11;;;28.28;47.16
77526;BME280;66627;29.424;-98.496;2023-06-10T09:46:24;98402.47;;;28.81;46.28
77526;BME280;66627;29.424;-98.496;2023-06-10T09:48:49;98406.24;;;29.01;46.04
77526;BME280;66627;29.424;-98.496;2023-06-10T09:51:14;98409.42;;;29.03;45.56
77526;BME280;66627;29.424;-98.496;2023-06-10T09:53:39;98418.65;;;28.51;45.81
77526;BME280;66627;29.424;-98.496;2023-06-10T09:56:05;98420.99;;;28.86;46.09
77526;BME280;66627;29.424;-98.496;2023-06-10T09:58:36;98422.79;;;29.30;45.49
77526;BME280;66627;29.424;-98.496;2023-06-10T10:00:54;98424.66;;;29.12;45.22
77526;BME280;66627;29.424;-98.496;2023-06-10T10:03:23;98429.20;;;29.07;44.88
77526;BME280;66627;29.424;-98.496;2023-06-10T10:05:45;98420.00;;;28.78;46.16
77526;BME280;66627;29.424;-98.496;2023-06-10T10:08:10;98414.77;;;29.10;45.61
77526;BME280;66627;29.424;-98.496;2023-06-10T10:10:36;98412.04;;;29.19;45.60
77526;BME280;66627;29.424;-98.496;2023-06-10T10:13:02;98415.22;;;29.18;45.16
77526;BME280;66627;29.424;-98.496;2023-06-10T10:15:31;98422.27;;;29.40;45.08
77526;BME280;66627;29.424;-98.496;2023-06-10T10:17:55;98429.51;;;29.47;44.87
77526;BME280;66627;29.424;-98.496;2023-06-10T10:20:20;98429.20;;;29.16;45.68
77526;BME280;66627;29.424;-98.496;2023-06-10T10:22:44;98432.84;;;29.09;45.24
77526;BME280;66627;29.424;-98.496;2023-06-10T10:25:11;98432.12;;;29.31;45.35
77526;BME280;66627;29.424;-98.496;2023-06-10T10:27:42;98436.80;;;29.14;45.64
77526;BME280;66627;29.424;-98.496;2023-06-10T10:29:59;98437.66;;;29.45;44.85
77526;BME280;66627;29.424;-98.496;2023-06-10T10:32:29;98439.86;;;29.57;44.52
77526;BME280;66627;29.424;-98.496;2023-06-10T10:34:53;98443.04;;;29.31;45.36
77526;BME280;66627;29.424;-98.496;2023-06-10T10:37:14;98448.01;;;28.74;46.05
77526;BME280;66627;29.424;-98.496;2023-06-10T10:39:40;98454.47;;;28.43;46.01
77526;BME280;66627;29.424;-98.496;2023-06-10T10:42:06;98458.33;;;28.27;46.28
77526;BME280;66627;29.424;-98.496;2023-06-10T10:44:31;98460.77;;;28.50;46.67
77526;BME280;66627;29.424;-98.496;2023-06-10T10:46:56;98458.88;;;28.49;46.32
77526;BME280;66627;29.424;-98.496;2023-06-10T10:49:21;98457.64;;;28.65;46.97
77526;BME280;66627;29.424;-98.496;2023-06-10T10:51:56;98458.38;;;28.64;46.28
77526;BME280;66627;29.424;-98.496;2023-06-10T10:54:12;98452.01;;;28.25;46.88
77526;BME280;66627;29.424;-98.496;2023-06-10T10:56:38;98454.28;;;28.44;46.55
77526;BME280;66627;29.424;-98.496;2023-06-10T10:59:05;98449.09;;;28.17;47.05
77526;BME280;66627;29.424;-98.496;2023-06-10T11:03:57;98440.66;;;27.68;48.31
77526;BME280;66627;29.424;-98.496;2023-06-10T11:06:19;98431.51;;;28.07;47.51
77526;BME280;66627;29.424;-98.496;2023-06-10T11:08:48;98427.75;;;28.04;47.34
77526;BME280;66627;29.424;-98.496;2023-06-10T11:11:18;98429.37;;;27.84;48.74
77526;BME280;66627;29.424;-98.496;2023-06-10T11:13:36;98428.92;;;27.13;49.53
77526;BME280;66627;29.424;-98.496;2023-06-10T11:16:00;98428.57;;;27.93;47.29
77526;BME280;66627;29.424;-98.496;2023-06-10T11:18:26;98430.96;;;27.56;47.35
77526;BME280;66627;29.424;-98.496;2023-06-10T11:20:54;98430.98;;;27.78;47.25
77526;BME280;66627;29.424;-98.496;2023-06-10T11:23:30;98432.03;;;27.74;47.29
77526;BME280;66627;29.424;-98.496;2023-06-10T11:25:42;98434.55;;;27.92;47.55
77526;BME280;66627;29.424;-98.496;2023-06-10T11:30:36;98424.42;;;27.86;47.12
77526;BME280;66627;29.424;-98.496;2023-06-10T11:32:58;98418.45;;;27.79;47.84
77526;BME280;66627;29.424;-98.496;2023-06-10T11:35:25;98415.90;;;27.63;48.01
77526;BME280;66627;29.424;-98.496;2023-06-10T11:37:49;98413.59;;;27.92;47.19
77526;BME280;66627;29.424;-98.496;2023-06-10T11:40:14;98415.05;;;27.93;47.12
77526;BME280;66627;29.424;-98.496;2023-06-10T11:42:42;98417.95;;;28.55;46.47
77526;BME280;66627;29.424;-98.496;2023-06-10T11:45:07;98415.11;;;28.14;46.77
77526;BME280;66627;29.424;-98.496;2023-06-10T11:47:30;98414.15;;;28.21;46.86
77526;BME280;66627;29.424;-98.496;2023-06-10T11:49:57;98418.65;;;27.03;48.91
77526;BME280;66627;29.424;-98.496;2023-06-10T11:52:26;98422.06;;;26.89;49.03
77526;BME280;66627;29.424;-98.496;2023-06-10T11:54:53;98424.63;;;26.72;49.28
77526;BME280;66627;29.424;-98.496;2023-06-10T11:57:11;98426.47;;;26.54;49.67
77526;BME280;66627;29.424;-98.496;2023-06-10T11:59:37;98432.39;;;27.95;48.36
77526;BME280;66627;29.424;-98.496;2023-06-10T12:02:02;98433.07;;;26.69;50.27
77526;BME280;66627;29.424;-98.496;2023-06-10T12:04:27;98436.23;;;26.90;50.14
77526;BME280;66627;29.424;-98.496;2023-06-10T12:06:53;98438.49;;;27.45;48.46
77526;BME280;66627;29.424;-98.496;2023-06-10T12:09:20;98440.45;;;27.33;49.17
77526;BME280;66627;29.424;-98.496;2023-06-10T12:11:44;98443.59;;;26.93;49.50
77526;BME280;66627;29.424;-98.496;2023-06-10T12:14:10;98445.22;;;27.46;48.24
77526;BME280;66627;29.424;-98.496;2023-06-10T12:16:34;98444.55;;;26.43;50.09
77526;BME280;66627;29.424;-98.496;2023-06-10T12:19:04;98445.84;;;28.20;48.28
77526;BME280;66627;29.424;-98.496;2023-06-10T12:21:25;98444.12;;;27.63;48.43
77526;BME280;66627;29.424;-98.496;2023-06-10T12:24:01;98442.47;;;27.32;48.75
77526;BME280;66627;29.424;-98.496;2023-06-10T12:26:16;98440.08;;;27.17;49.14
77526;BME280;66627;29.424;-98.496;2023-06-10T12:28:50;98438.03;;;27.94;48.32
77526;BME280;66627;29.424;-98.496;2023-06-10T12:31:08;98440.35;;;28.47;46.65
77526;BME280;66627;29.424;-98.496;2023-06-10T12:33:32;98444.59;;;28.40;47.37